Thursday, January 17, 2019, 6:02 AM EST
Back to Local

KRWI, Rocky Mount-wilson Airport

Location: Elm City, NC, United States Lat: 35.85
Local Time: 6:02 AM EST (11:02 GMT) Lon: -77.9
Time Zone: US/Eastern Elev: 160 ft

Show me the last for .
Show Coded

Time T Td Feel RH Dir Speed Gust Alt SLP Vis Weather Sky Remarks
2019-01-17 05:29 30 28 24 92 20° 6 - 30.31 - 8 SCT014 None
2019-01-17 05:09 30 29 24 95 20° 6 - 30.30 - 9 BKN014 None
2019-01-17 04:53 30 28 25 92 20° 5 - 30.30 30.30 10 FEW014 None
2019-01-17 03:53 30 29 - 95 - Calm - 30.31 30.31 10 CLR None
2019-01-17 02:53 30 28 26 92 30° 3 - 30.31 30.31 10 CLR None
2019-01-17 01:53 31 28 25 88 20° 6 - 30.29 30.29 10 CLR None
2019-01-17 00:53 34 30 29 85 20° 6 - 30.28 30.28 10 CLR 6-hr Min Temp (1am): 30.9°F
6-hr Max Temp (1am): 41.0°F
2019-01-16 23:53 33 29 28 84 360° 6 - 30.28 30.29 10 CLR 24-hr Min Temp (12am): 25.0°F
24-hr Max Temp (12am): 55.0°F
2019-01-16 22:53 34 31 30 88 360° 5 - 30.28 30.28 10 CLR None
2019-01-16 21:53 34 33 - 96 - Calm - 30.26 30.27 10 CLR None
2019-01-16 20:53 37 34 - 88 - Calm - 30.26 30.26 10 CLR None
2019-01-16 19:53 36 33 - 89 - Calm - 30.23 30.23 10 CLR None
2019-01-16 18:53 41 35 - 79 - Calm - 30.22 30.22 10 CLR 6-hr Min Temp (7pm): 39.9°F
6-hr Max Temp (7pm): 55.0°F
2019-01-16 17:53 46 32 44 57 340° 5 - 30.18 30.19 10 CLR None
2019-01-16 16:53 52 32 - 46 - Calm - 30.16 30.16 10 CLR None
2019-01-16 15:53 55 32 - 41 310° 8 - 30.15 30.15 10 CLR None
2019-01-16 14:53 55 34 - 44 260° 7 - 30.14 30.14 10 CLR None
2019-01-16 13:53 53 33 - 46 260° 8 - 30.14 30.14 10 CLR None
2019-01-16 12:53 53 33 - 46 270° 10 - 30.15 30.15 10 CLR 6-hr Min Temp (1pm): 25.0°F
6-hr Max Temp (1pm): 53.1°F
2019-01-16 11:53 50 36 46 58 240° 9 - 30.19 30.19 10 CLR None
2019-01-16 10:53 46 36 42 67 230° 7 - 30.22 30.22 10 CLR None
2019-01-16 09:53 41 34 35 75 200° 9 - 30.21 30.21 10 CLR None
2019-01-16 08:53 33 31 28 91 210° 6 - 30.20 30.20 6 BR CLR None
2019-01-16 08:40 32 31 27 95 210° 5 - 30.21 - 3 BR CLR None
2019-01-16 08:00 27 26 23 96 200° 3 - 30.20 - 2 BR CLR None
2019-01-16 07:53 26 25 21 95 200° 5 - 30.20 30.21 1 BR CLR None
2019-01-16 07:11 27 25 - 92 - Calm - 30.20 - 1 BR CLR None
2019-01-16 06:53 26 26 22 100 170° 3 - 30.20 30.20 2 BR CLR 6-hr Min Temp (7am): 26.1°F
6-hr Max Temp (7am): 28.0°F
2019-01-16 06:16 28 26 - 92 - Calm - 30.20 - 1 BR CLR None

Support USWX by starting your Amazon purchase here.